Time;durP1;ratioP1;P1;durP2;ratioP2;P2;SDS_P1;SDS_P2;PMS_P1;PMS_P2;Temp;Humidity;BMP_temperature;BMP_pressure;BME280_temperature;BME280_humidity;BME280_pressure;Samples;Min_cycle;Max_cycle;Signal;HPM_P1;HPM_P2
2020/12/11 00:01:11;;;;;;;30.87;19.80;;;2.10;99.90;;;;;;5028066;28;20877;-89
2020/12/11 00:03:37;;;;;;;31.07;19.97;;;2.10;99.90;;;;;;5031668;28;20640;-84
2020/12/11 00:06:03;;;;;;;29.50;19.90;;;2.10;99.90;;;;;;5032177;28;20205;-88
2020/12/11 00:08:30;;;;;;;27.97;19.37;;;2.00;99.90;;;;;;5032527;28;20207;-79
2020/12/11 00:10:57;;;;;;;29.50;19.83;;;2.00;99.90;;;;;;5031882;28;20203;-88
2020/12/11 00:13:23;;;;;;;32.43;21.13;;;2.00;99.90;;;;;;5031219;28;20213;-77
2020/12/11 00:15:49;;;;;;;32.43;19.70;;;2.00;99.90;;;;;;5031632;28;20306;-87
2020/12/11 00:18:16;;;;;;;30.93;21.03;;;2.00;99.90;;;;;;5022771;23;20242;-89
2020/12/11 00:20:42;;;;;;;33.37;21.33;;;2.00;99.90;;;;;;5011100;28;20231;-83
2020/12/11 00:23:08;;;;;;;33.93;21.10;;;2.00;99.90;;;;;;5011482;28;20204;-84
2020/12/11 00:25:35;;;;;;;31.73;20.67;;;2.00;99.90;;;;;;5017665;28;20202;-88
2020/12/11 00:28:02;;;;;;;37.70;21.60;;;2.00;99.90;;;;;;5031494;28;20229;-88
2020/12/11 00:30:29;;;;;;;33.47;21.13;;;2.00;99.90;;;;;;5031769;28;20198;-88
2020/12/11 00:32:55;;;;;;;32.77;22.33;;;2.00;99.90;;;;;;5031889;28;20207;-90
2020/12/11 00:35:21;;;;;;;35.00;21.53;;;2.00;99.90;;;;;;5031217;28;20218;-89
2020/12/11 00:37:48;;;;;;;33.00;21.17;;;2.00;99.90;;;;;;5031145;28;20907;-80
2020/12/11 00:40:14;;;;;;;32.93;21.30;;;2.00;99.90;;;;;;5030885;28;20229;-83
2020/12/11 00:42:40;;;;;;;32.17;21.67;;;2.00;99.90;;;;;;5031372;28;20205;-88
2020/12/11 00:45:07;;;;;;;35.47;23.17;;;2.00;99.90;;;;;;5030681;28;20206;-89
2020/12/11 00:47:33;;;;;;;35.47;22.20;;;2.00;99.90;;;;;;5030967;28;20206;-89
2020/12/11 00:49:59;;;;;;;34.27;22.27;;;2.10;99.90;;;;;;5030661;28;20194;-83
2020/12/11 00:52:26;;;;;;;31.90;21.97;;;2.10;99.90;;;;;;5030234;28;20210;-88
2020/12/11 00:54:52;;;;;;;34.07;21.93;;;2.10;99.90;;;;;;5029355;28;20214;-81
2020/12/11 00:57:18;;;;;;;36.07;23.00;;;2.10;99.90;;;;;;5030722;28;20206;-82
2020/12/11 00:59:45;;;;;;;35.50;21.47;;;2.00;99.90;;;;;;5030499;28;20222;-85
2020/12/11 01:02:12;;;;;;;31.50;21.13;;;2.10;99.90;;;;;;5030749;28;20205;-88
2020/12/11 01:04:38;;;;;;;36.10;24.03;;;2.00;99.90;;;;;;5030792;28;20583;-88
2020/12/11 01:07:05;;;;;;;31.77;20.97;;;2.00;99.90;;;;;;5030284;28;20498;-86
2020/12/11 01:09:31;;;;;;;34.07;21.43;;;2.00;99.90;;;;;;5030780;28;20207;-84
2020/12/11 01:11:57;;;;;;;36.40;22.47;;;2.00;99.90;;;;;;5031134;28;20210;-82
2020/12/11 01:14:23;;;;;;;34.40;21.30;;;2.00;99.90;;;;;;5030226;28;20261;-84
2020/12/11 01:16:50;;;;;;;30.63;21.30;;;2.00;99.90;;;;;;5029901;28;20823;-82
2020/12/11 01:19:17;;;;;;;34.90;22.63;;;1.90;99.90;;;;;;5030648;28;20273;-90
2020/12/11 01:21:43;;;;;;;30.23;21.03;;;1.90;99.90;;;;;;5030345;28;20496;-90
2020/12/11 01:24:10;;;;;;;32.80;21.60;;;1.90;99.90;;;;;;5029459;28;20222;-87
2020/12/11 01:26:36;;;;;;;33.80;22.10;;;1.90;99.90;;;;;;5029789;28;20221;-84
2020/12/11 01:29:02;;;;;;;33.50;22.80;;;1.90;99.90;;;;;;5029101;28;20207;-78
2020/12/11 01:31:29;;;;;;;32.50;21.33;;;1.90;99.90;;;;;;5027249;28;20203;-84
2020/12/11 01:33:55;;;;;;;32.07;21.77;;;1.90;99.90;;;;;;5026588;28;20203;-87
2020/12/11 01:36:26;;;;;;;34.40;20.40;;;1.90;99.90;;;;;;5028891;28;20534;-80
2020/12/11 01:38:52;;;;;;;32.93;20.93;;;1.90;99.90;;;;;;5028425;28;20210;-82
2020/12/11 01:41:18;;;;;;;30.57;19.73;;;1.90;99.90;;;;;;5027623;28;20232;-87
2020/12/11 01:43:45;;;;;;;32.83;20.53;;;1.90;99.90;;;;;;5027935;28;20210;-85
2020/12/11 01:46:15;;;;;;;33.83;20.40;;;1.90;99.90;;;;;;5025802;28;20207;-81
2020/12/11 01:48:41;;;;;;;30.03;20.90;;;1.90;99.90;;;;;;5022406;23;20289;-86
2020/12/11 01:51:07;;;;;;;33.03;21.43;;;1.80;99.90;;;;;;5007667;28;20210;-80
2020/12/11 01:53:36;;;;;;;33.97;21.80;;;1.80;99.90;;;;;;5007929;28;20200;-80
2020/12/11 01:56:06;;;;;;;31.33;20.13;;;1.80;99.90;;;;;;5007744;28;20207;-83
2020/12/11 01:58:34;;;;;;;29.87;19.77;;;1.80;99.90;;;;;;5007969;28;20188;-85
2020/12/11 02:01:03;;;;;;;31.23;20.47;;;1.80;99.90;;;;;;5008198;28;20227;-79
2020/12/11 02:03:29;;;;;;;31.30;20.57;;;1.80;99.90;;;;;;5007925;28;20211;-87
2020/12/11 02:05:56;;;;;;;28.97;19.87;;;1.80;99.90;;;;;;5008126;28;20211;-83
2020/12/11 02:08:23;;;;;;;31.40;20.07;;;1.70;99.90;;;;;;5010030;28;20664;-78
2020/12/11 02:10:50;;;;;;;31.83;20.37;;;1.70;99.90;;;;;;5009286;28;20207;-76
2020/12/11 02:13:16;;;;;;;35.43;21.17;;;1.70;99.90;;;;;;5004760;28;20206;-76
2020/12/11 02:15:43;;;;;;;33.07;20.73;;;1.70;99.90;;;;;;5005570;28;20203;-76
2020/12/11 02:18:09;;;;;;;32.50;20.17;;;1.70;99.90;;;;;;5004761;28;20195;-77
2020/12/11 02:20:36;;;;;;;32.07;20.80;;;1.70;99.90;;;;;;5004583;28;20223;-78
2020/12/11 02:23:03;;;;;;;32.40;21.70;;;1.70;99.90;;;;;;5005108;28;20199;-76
2020/12/11 02:25:29;;;;;;;31.83;20.87;;;1.70;99.90;;;;;;4989574;28;20603;-77
2020/12/11 02:27:55;;;;;;;32.53;22.10;;;1.70;99.90;;;;;;5004987;28;20199;-78
2020/12/11 02:30:22;;;;;;;33.47;21.37;;;1.70;99.90;;;;;;5003877;28;20210;-84
2020/12/11 02:32:48;;;;;;;31.33;21.07;;;1.70;99.90;;;;;;5005397;28;20203;-77
2020/12/11 02:35:14;;;;;;;33.40;21.60;;;1.70;99.90;;;;;;5004389;28;20199;-77
2020/12/11 02:37:41;;;;;;;31.70;21.10;;;1.70;99.90;;;;;;5004242;28;20582;-76
2020/12/11 02:40:08;;;;;;;30.53;21.40;;;1.60;99.90;;;;;;5005519;28;20247;-78
2020/12/11 02:42:35;;;;;;;33.10;21.30;;;1.70;99.90;;;;;;5006066;28;20207;-79
2020/12/11 02:45:02;;;;;;;29.67;19.43;;;1.70;99.90;;;;;;5004740;28;20210;-81
2020/12/11 02:47:32;;;;;;;32.37;20.80;;;1.60;99.90;;;;;;5006136;28;20206;-78
2020/12/11 02:49:59;;;;;;;30.73;20.40;;;1.70;99.90;;;;;;5006184;28;20243;-82
2020/12/11 02:52:25;;;;;;;31.67;20.43;;;1.70;99.90;;;;;;5005437;28;20203;-78
2020/12/11 02:54:51;;;;;;;33.17;21.27;;;1.70;99.90;;;;;;5005555;28;20214;-85
2020/12/11 02:57:19;;;;;;;33.43;20.70;;;1.70;99.90;;;;;;5006315;28;20207;-77
2020/12/11 02:59:45;;;;;;;30.47;20.50;;;1.70;99.90;;;;;;5008108;28;20226;-80
2020/12/11 03:02:11;;;;;;;33.97;21.37;;;1.70;99.90;;;;;;5005541;28;20203;-78
2020/12/11 03:04:37;;;;;;;30.83;21.57;;;1.70;99.90;;;;;;5007185;28;20226;-79
2020/12/11 03:07:04;;;;;;;33.60;20.37;;;1.70;99.90;;;;;;5007227;28;20513;-80
2020/12/11 03:09:30;;;;;;;29.93;20.80;;;1.60;99.90;;;;;;5008607;28;20203;-80
2020/12/11 03:11:56;;;;;;;32.27;21.60;;;1.60;99.90;;;;;;5006759;28;20195;-80
2020/12/11 03:14:23;;;;;;;30.47;20.27;;;1.70;99.90;;;;;;5006607;28;20575;-75
2020/12/11 03:16:49;;;;;;;31.73;22.13;;;1.60;99.90;;;;;;5007407;28;20218;-79
2020/12/11 03:19:16;;;;;;;29.57;20.10;;;1.60;99.90;;;;;;5010251;28;20206;-85
2020/12/11 03:21:42;;;;;;;31.57;20.07;;;1.60;99.90;;;;;;5010166;28;20897;-84
2020/12/11 03:24:08;;;;;;;32.47;21.57;;;1.60;99.90;;;;;;5008806;28;20219;-81
2020/12/11 03:26:34;;;;;;;32.23;20.50;;;1.60;99.90;;;;;;5009279;28;20666;-78
2020/12/11 03:29:01;;;;;;;27.20;19.17;;;1.60;99.90;;;;;;5008968;28;20647;-82
2020/12/11 03:31:28;;;;;;;31.20;20.30;;;1.60;99.90;;;;;;5009977;28;20847;-82
2020/12/11 03:33:54;;;;;;;30.57;20.07;;;1.60;99.90;;;;;;5008969;28;20207;-88
2020/12/11 03:36:21;;;;;;;26.23;18.40;;;1.60;99.90;;;;;;5007197;28;20210;-75
2020/12/11 03:38:49;;;;;;;32.10;20.03;;;1.60;99.90;;;;;;5007406;28;20928;-78
2020/12/11 03:41:15;;;;;;;32.40;21.23;;;1.60;99.90;;;;;;5009938;28;20265;-79
2020/12/11 03:43:42;;;;;;;30.30;19.70;;;1.70;99.90;;;;;;5010077;28;20219;-82
2020/12/11 03:46:08;;;;;;;27.20;19.53;;;1.60;99.90;;;;;;5010239;28;20207;-85
2020/12/11 03:48:35;;;;;;;28.57;19.07;;;1.60;99.90;;;;;;5010031;28;20239;-87
2020/12/11 03:51:01;;;;;;;25.27;18.90;;;1.60;99.90;;;;;;5009159;28;20693;-82
2020/12/11 03:53:28;;;;;;;28.30;19.43;;;1.70;99.90;;;;;;5010248;28;20790;-82
2020/12/11 03:55:57;;;;;;;29.17;19.87;;;1.70;99.90;;;;;;5009568;28;20881;-82
2020/12/11 03:58:23;;;;;;;25.33;17.83;;;1.70;99.90;;;;;;5009967;28;20266;-79
2020/12/11 04:00:49;;;;;;;26.70;18.43;;;1.80;99.90;;;;;;5009709;28;20227;-86
2020/12/11 04:03:16;;;;;;;28.77;19.20;;;1.70;99.90;;;;;;5009827;28;20203;-81
2020/12/11 04:05:44;;;;;;;30.07;19.53;;;1.70;99.90;;;;;;5010658;28;20580;-81
2020/12/11 04:08:10;;;;;;;27.00;18.40;;;1.70;99.90;;;;;;5010553;28;20203;-84
2020/12/11 04:10:36;;;;;;;28.30;18.93;;;1.80;99.90;;;;;;5010741;28;20199;-82
2020/12/11 04:13:03;;;;;;;27.70;18.70;;;1.80;99.90;;;;;;5011454;28;20207;-85
2020/12/11 04:15:29;;;;;;;33.17;18.37;;;1.90;99.90;;;;;;5010101;28;20772;-78
2020/12/11 04:17:55;;;;;;;25.07;17.17;;;1.90;99.90;;;;;;5010984;28;20203;-77
2020/12/11 04:20:21;;;;;;;25.37;18.43;;;1.90;99.90;;;;;;5010537;28;20226;-87
2020/12/11 04:22:48;;;;;;;25.17;16.83;;;1.90;99.90;;;;;;5010458;28;20213;-76
2020/12/11 04:25:14;;;;;;;28.10;18.17;;;1.90;99.90;;;;;;5006947;28;20231;-81
2020/12/11 04:27:41;;;;;;;25.30;18.10;;;1.90;99.90;;;;;;4990598;28;20206;-86
2020/12/11 04:30:07;;;;;;;24.83;18.17;;;1.80;99.90;;;;;;4991146;28;20843;-87
2020/12/11 04:32:33;;;;;;;25.13;17.67;;;1.80;99.90;;;;;;4992136;28;20211;-87
2020/12/11 04:35:00;;;;;;;27.97;17.77;;;1.80;99.90;;;;;;4990735;28;20199;-84
2020/12/11 04:37:26;;;;;;;24.87;17.93;;;1.80;99.90;;;;;;4990739;28;20208;-78
2020/12/11 04:39:53;;;;;;;25.30;16.90;;;1.80;99.90;;;;;;4991327;28;20219;-86
2020/12/11 04:42:19;;;;;;;24.07;17.83;;;1.80;99.90;;;;;;4989985;28;20214;-87
2020/12/11 04:44:46;;;;;;;25.97;17.60;;;1.80;99.90;;;;;;4989886;28;20208;-88
2020/12/11 04:47:13;;;;;;;26.53;17.33;;;1.80;99.90;;;;;;4990663;28;20317;-83
2020/12/11 04:49:41;;;;;;;24.07;17.13;;;1.80;99.90;;;;;;4988905;28;20236;-85
2020/12/11 04:52:08;;;;;;;31.70;17.90;;;1.80;99.90;;;;;;4985971;28;20659;-83
2020/12/11 04:54:38;;;;;;;25.17;17.27;;;1.80;99.90;;;;;;4988313;28;20852;-80
2020/12/11 04:57:09;;;;;;;30.33;18.63;;;1.80;99.90;;;;;;4991277;28;20196;-81
2020/12/11 04:59:35;;;;;;;26.70;17.70;;;1.80;99.90;;;;;;4991215;28;20208;-78
2020/12/11 05:02:10;;;;;;;27.23;18.07;;;1.80;99.90;;;;;;4991305;28;20605;-87
2020/12/11 05:04:38;;;;;;;25.00;16.13;;;1.80;99.90;;;;;;4991683;28;20215;-87
2020/12/11 05:07:04;;;;;;;26.57;18.27;;;1.70;99.90;;;;;;4990605;28;20239;-84
2020/12/11 05:09:30;;;;;;;24.87;17.00;;;1.70;99.90;;;;;;4990242;28;20275;-81
2020/12/11 05:11:57;;;;;;;25.00;18.67;;;1.70;99.90;;;;;;4990458;28;20200;-85
2020/12/11 05:14:26;;;;;;;27.47;18.70;;;1.80;99.90;;;;;;4990137;28;20557;-79
2020/12/11 05:17:03;;;;;;;26.43;19.10;;;1.80;99.90;;;;;;4989459;28;20204;-85
2020/12/11 05:19:31;;;;;;;25.30;18.70;;;1.80;99.90;;;;;;4990808;28;20895;-83
2020/12/11 05:22:10;;;;;;;24.87;17.93;;;1.80;99.90;;;;;;4991083;28;20232;-88
2020/12/11 05:24:45;;;;;;;27.67;18.47;;;1.80;99.90;;;;;;4990432;28;20227;-86
2020/12/11 05:27:31;;;;;;;27.53;18.83;;;1.80;99.90;;;;;;4990577;28;20196;-84
2020/12/11 05:30:00;;;;;;;27.37;18.70;;;1.80;99.90;;;;;;4989970;28;20207;-85
2020/12/11 05:32:38;;;;;;;28.80;18.97;;;1.80;99.90;;;;;;4986376;28;20569;-88
2020/12/11 05:35:06;;;;;;;27.73;17.50;;;1.90;99.90;;;;;;4985919;28;20210;-83
2020/12/11 05:37:44;;;;;;;28.23;18.33;;;1.90;99.90;;;;;;4985881;28;20207;-86
2020/12/11 05:40:16;;;;;;;26.77;18.23;;;1.90;99.90;;;;;;4987378;28;20231;-87
2020/12/11 05:42:42;;;;;;;26.23;18.20;;;1.90;99.90;;;;;;4991393;28;20204;-86
2020/12/11 05:45:17;;;;;;;26.70;18.73;;;2.00;99.90;;;;;;4991667;28;20491;-84
2020/12/11 05:47:44;;;;;;;22.37;16.40;;;2.00;99.90;;;;;;4991399;28;20291;-88
2020/12/11 05:50:19;;;;;;;26.97;18.53;;;2.00;99.90;;;;;;4990707;28;20303;-88
2020/12/11 05:52:47;;;;;;;25.77;17.73;;;2.00;99.90;;;;;;4991336;28;20195;-84
2020/12/11 05:55:18;;;;;;;28.50;17.80;;;2.00;99.90;;;;;;4991107;28;20785;-88
2020/12/11 05:57:45;;;;;;;25.53;17.83;;;2.10;99.90;;;;;;4991075;28;20255;-88
2020/12/11 06:00:12;;;;;;;26.43;18.17;;;2.10;99.90;;;;;;4990304;28;20231;-83
2020/12/11 06:02:39;;;;;;;23.03;17.03;;;2.10;99.90;;;;;;4990516;28;20195;-83
2020/12/11 06:05:07;;;;;;;24.60;17.10;;;2.10;99.90;;;;;;4990525;28;20204;-88
2020/12/11 06:07:38;;;;;;;28.40;17.47;;;2.10;99.90;;;;;;4989406;28;20200;-86
2020/12/11 06:10:04;;;;;;;23.50;17.53;;;2.20;99.90;;;;;;4989700;28;20200;-80
2020/12/11 06:12:32;;;;;;;25.87;17.83;;;2.20;99.90;;;;;;4989824;28;20287;-83
2020/12/11 06:15:07;;;;;;;23.43;17.27;;;2.20;99.90;;;;;;4990131;28;20232;-84
2020/12/11 06:17:42;;;;;;;23.87;16.67;;;2.20;99.90;;;;;;4989320;28;20196;-86
2020/12/11 06:20:10;;;;;;;23.03;16.07;;;2.20;99.90;;;;;;4989061;28;20207;-75
2020/12/11 06:22:37;;;;;;;25.23;18.13;;;2.20;99.90;;;;;;4989544;28;20203;-78
2020/12/11 06:25:25;;;;;;;24.30;17.97;;;2.30;99.90;;;;;;4990598;28;20227;-76
2020/12/11 06:27:52;;;;;;;23.90;17.07;;;2.20;99.90;;;;;;5011207;28;20269;-85
2020/12/11 06:30:27;;;;;;;22.13;15.47;;;2.30;99.90;;;;;;5011863;28;20195;-86
2020/12/11 06:32:54;;;;;;;22.00;15.83;;;2.30;99.90;;;;;;5012377;28;20198;-83
2020/12/11 06:35:21;;;;;;;22.00;16.07;;;2.30;99.90;;;;;;5010963;28;20604;-82
2020/12/11 06:37:48;;;;;;;28.07;17.43;;;2.30;99.90;;;;;;5009446;28;20207;-87
2020/12/11 06:40:14;;;;;;;23.70;16.87;;;2.30;99.90;;;;;;5008639;28;20805;-78
2020/12/11 06:42:43;;;;;;;27.33;17.77;;;2.40;99.90;;;;;;5008892;28;20214;-88
2020/12/11 06:45:30;;;;;;;25.80;18.73;;;2.30;99.90;;;;;;5010103;28;20211;-79
2020/12/11 06:47:58;;;;;;;26.30;17.20;;;2.30;99.90;;;;;;5012638;28;20507;-77
2020/12/11 06:50:28;;;;;;;25.03;17.07;;;2.40;99.90;;;;;;5003955;28;20204;-77
2020/12/11 06:52:55;;;;;;;21.60;15.80;;;2.40;99.90;;;;;;5003957;28;20203;-77
2020/12/11 06:55:21;;;;;;;23.87;17.50;;;2.40;99.90;;;;;;5003384;28;20207;-84
2020/12/11 06:57:49;;;;;;;25.00;16.43;;;2.40;99.90;;;;;;5003700;28;20210;-77
2020/12/11 07:00:33;;;;;;;25.43;17.30;;;2.50;99.90;;;;;;5003130;28;20203;-77
2020/12/11 07:03:21;;;;;;;23.67;16.80;;;2.50;99.90;;;;;;5003581;28;20203;-77
2020/12/11 07:06:09;;;;;;;22.63;16.53;;;2.50;99.90;;;;;;5003441;28;20203;-77
2020/12/11 07:08:35;;;;;;;22.83;16.50;;;2.50;99.90;;;;;;5003616;28;20507;-76
2020/12/11 07:11:07;;;;;;;23.80;16.43;;;2.50;99.90;;;;;;5003963;28;20199;-82
2020/12/11 07:13:36;;;;;;;25.50;16.37;;;2.60;99.90;;;;;;5004682;28;20234;-76
2020/12/11 07:16:05;;;;;;;23.07;16.00;;;2.60;99.90;;;;;;5003469;28;20350;-78
2020/12/11 07:18:32;;;;;;;21.20;14.87;;;2.60;99.90;;;;;;5004136;28;20210;-81
2020/12/11 07:21:00;;;;;;;22.97;16.67;;;2.70;99.90;;;;;;5006921;28;20230;-78
2020/12/11 07:23:26;;;;;;;25.37;16.07;;;2.70;99.90;;;;;;5006872;28;20230;-87
2020/12/11 07:25:54;;;;;;;23.40;16.60;;;2.70;99.90;;;;;;4998903;28;20199;-83
2020/12/11 07:28:21;;;;;;;21.07;15.50;;;2.70;99.90;;;;;;4988183;28;20310;-81
2020/12/11 07:30:48;;;;;;;24.57;16.80;;;2.70;99.90;;;;;;4985968;28;20208;-78
2020/12/11 07:33:16;;;;;;;24.50;15.20;;;2.80;99.90;;;;;;4984802;28;20211;-77
2020/12/11 07:35:50;;;;;;;23.90;15.87;;;2.80;99.90;;;;;;4985568;28;20295;-77
2020/12/11 07:38:18;;;;;;;23.33;16.73;;;2.80;99.90;;;;;;4983662;28;20596;-77
2020/12/11 07:40:51;;;;;;;24.07;16.20;;;2.80;99.90;;;;;;4984065;28;20220;-78
2020/12/11 07:43:19;;;;;;;23.80;15.50;;;2.80;99.90;;;;;;4985235;28;20204;-86
2020/12/11 07:45:48;;;;;;;21.40;14.93;;;2.80;99.90;;;;;;4987028;28;20208;-83
2020/12/11 07:48:18;;;;;;;22.50;15.93;;;2.90;99.90;;;;;;4986596;28;20212;-79
2020/12/11 07:50:45;;;;;;;25.17;17.77;;;2.90;99.90;;;;;;4983375;28;20754;-78
2020/12/11 07:53:13;;;;;;;23.07;16.07;;;2.80;99.90;;;;;;4983344;28;20918;-79
2020/12/11 07:55:39;;;;;;;21.67;15.63;;;2.80;99.90;;;;;;4984171;28;20559;-80
2020/12/11 07:58:06;;;;;;;22.83;16.10;;;2.80;99.90;;;;;;4984001;28;20208;-77
2020/12/11 08:00:37;;;;;;;21.97;15.47;;;2.90;99.90;;;;;;4984586;28;20234;-77
2020/12/11 08:03:06;;;;;;;22.10;16.83;;;2.90;99.90;;;;;;4986886;28;20535;-85
2020/12/11 08:05:34;;;;;;;23.23;16.50;;;2.90;99.90;;;;;;4988633;28;20215;-82
2020/12/11 08:08:00;;;;;;;26.30;16.97;;;2.90;99.90;;;;;;4988327;28;20813;-78
2020/12/11 08:10:36;;;;;;;24.47;16.03;;;2.90;99.90;;;;;;4989312;28;20210;-81
2020/12/11 08:13:16;;;;;;;22.27;15.97;;;3.00;99.90;;;;;;4989715;28;20195;-85
2020/12/11 08:15:44;;;;;;;26.07;17.60;;;3.00;99.90;;;;;;4988922;28;20537;-81
2020/12/11 08:18:13;;;;;;;23.80;16.17;;;3.00;99.90;;;;;;4989370;28;20624;-76
2020/12/11 08:20:44;;;;;;;22.70;16.47;;;3.00;99.90;;;;;;4990036;28;20695;-83
2020/12/11 08:40:47;;;;;;;22.73;16.70;;;3.10;99.90;;;;;;4906314;28;20593;-82
2020/12/11 08:43:19;;;;;;;21.67;16.30;;;3.10;99.90;;;;;;4967708;28;20205;-77
2020/12/11 08:45:56;;;;;;;24.87;16.97;;;3.10;99.90;;;;;;4967541;28;20826;-84
2020/12/11 08:48:35;;;;;;;25.50;17.17;;;3.10;99.90;;;;;;4967526;28;20244;-83
2020/12/11 08:51:03;;;;;;;22.37;16.37;;;3.10;99.90;;;;;;4967799;28;20204;-87
2020/12/11 08:53:34;;;;;;;23.67;16.10;;;3.10;99.90;;;;;;4968509;28;20212;-84
2020/12/11 08:56:01;;;;;;;26.67;17.27;;;3.10;99.90;;;;;;4968231;28;20229;-85
2020/12/11 08:58:28;;;;;;;24.63;16.80;;;3.10;99.90;;;;;;4968789;28;20232;-82
2020/12/11 09:00:54;;;;;;;22.87;17.03;;;3.00;99.90;;;;;;4967919;28;20636;-78
2020/12/11 09:03:20;;;;;;;27.17;17.57;;;3.10;99.90;;;;;;4971313;28;20200;-87
2020/12/11 09:05:47;;;;;;;27.33;18.23;;;3.10;99.90;;;;;;4990330;28;20211;-83
2020/12/11 09:08:13;;;;;;;27.03;18.47;;;3.10;99.90;;;;;;4989951;28;20198;-85
2020/12/11 09:10:39;;;;;;;25.20;17.27;;;3.20;99.90;;;;;;4990095;28;20200;-81
2020/12/11 09:13:07;;;;;;;25.07;17.60;;;3.20;99.90;;;;;;4990090;28;20620;-82
2020/12/11 09:15:33;;;;;;;27.60;18.47;;;3.20;99.90;;;;;;4988965;28;20290;-85
2020/12/11 09:17:59;;;;;;;26.17;17.33;;;3.20;99.90;;;;;;4990137;28;20196;-78
2020/12/11 09:20:25;;;;;;;26.53;17.93;;;3.20;99.90;;;;;;4990585;28;20215;-88
2020/12/11 09:22:53;;;;;;;25.40;17.93;;;3.20;99.90;;;;;;4989854;28;20200;-91
2020/12/11 09:25:20;;;;;;;25.67;18.20;;;3.30;99.90;;;;;;4990076;28;20293;-90
2020/12/11 09:27:46;;;;;;;24.70;17.83;;;3.30;99.90;;;;;;4990422;28;20743;-81
2020/12/11 09:30:24;;;;;;;26.97;18.50;;;3.30;99.90;;;;;;4988176;28;20211;-82
2020/12/11 09:32:57;;;;;;;27.00;17.00;;;3.30;99.90;;;;;;4989623;28;20773;-81
2020/12/11 09:35:26;;;;;;;26.63;18.57;;;3.30;99.90;;;;;;4990304;28;20602;-79
2020/12/11 09:37:52;;;;;;;25.70;16.90;;;3.30;99.90;;;;;;4988899;28;20202;-82
2020/12/11 09:40:22;;;;;;;29.43;19.23;;;3.30;99.90;;;;;;4987881;28;20196;-83
2020/12/11 09:43:10;;;;;;;23.50;17.63;;;3.40;99.90;;;;;;4987882;28;20611;-91
2020/12/11 09:45:40;;;;;;;24.03;17.73;;;3.40;99.90;;;;;;4988675;28;20286;-90
2020/12/11 09:48:20;;;;;;;28.60;17.60;;;3.40;99.90;;;;;;4987749;28;20247;-81
2020/12/11 09:51:02;;;;;;;25.17;16.33;;;3.40;99.90;;;;;;4988460;28;20199;-92
2020/12/11 09:56:21;;;;;;;24.50;17.17;;;3.50;99.90;;;;;;4987976;28;20219;-80
2020/12/11 09:58:49;;;;;;;23.03;16.77;;;3.50;99.90;;;;;;4989197;28;20199;-92
2020/12/11 10:01:20;;;;;;;23.60;16.67;;;3.50;99.90;;;;;;4989331;28;20228;-78
2020/12/11 10:03:46;;;;;;;22.87;16.83;;;3.60;99.90;;;;;;4988152;28;20210;-82
2020/12/11 10:06:13;;;;;;;24.50;15.97;;;3.60;99.90;;;;;;4988208;28;20520;-90
2020/12/11 10:08:39;;;;;;;24.30;16.20;;;3.60;99.90;;;;;;4989494;28;20769;-89
2020/12/11 10:11:05;;;;;;;24.40;17.00;;;3.60;99.90;;;;;;4989377;28;20196;-91
2020/12/11 10:13:34;;;;;;;24.47;17.30;;;3.60;99.90;;;;;;4988667;28;20208;-82
2020/12/11 10:16:00;;;;;;;23.33;16.30;;;3.60;99.90;;;;;;4988214;28;20219;-82
2020/12/11 10:18:28;;;;;;;23.17;17.47;;;3.70;99.90;;;;;;4988386;28;20211;-87
2020/12/11 10:20:54;;;;;;;25.07;16.87;;;3.70;99.90;;;;;;4987757;28;20228;-87
2020/12/11 10:23:20;;;;;;;21.20;15.83;;;3.70;99.90;;;;;;4991203;28;20239;-90
2020/12/11 10:25:46;;;;;;;20.80;15.80;;;3.70;99.90;;;;;;4991942;28;20291;-93
2020/12/11 10:28:12;;;;;;;24.53;15.43;;;3.70;99.90;;;;;;4989631;28;20867;-83
2020/12/11 10:30:39;;;;;;;21.77;16.27;;;3.70;99.90;;;;;;4988282;28;20204;-79
2020/12/11 10:33:05;;;;;;;23.77;15.60;;;3.70;99.90;;;;;;4986684;28;20603;-76
2020/12/11 10:35:34;;;;;;;21.80;15.13;;;3.70;99.90;;;;;;4987740;28;20219;-81
2020/12/11 10:38:04;;;;;;;20.83;15.20;;;3.80;99.90;;;;;;4986729;28;20560;-81
2020/12/11 10:40:30;;;;;;;20.63;15.27;;;3.80;99.90;;;;;;4993181;28;20219;-87
2020/12/11 10:42:57;;;;;;;24.37;15.80;;;3.80;99.90;;;;;;4991253;28;20207;-82
2020/12/11 10:45:23;;;;;;;20.77;15.33;;;3.70;99.90;;;;;;4992651;28;20552;-79
2020/12/11 10:47:49;;;;;;;21.17;15.87;;;3.80;99.90;;;;;;4997269;28;20411;-81
2020/12/11 10:50:15;;;;;;;21.80;15.97;;;3.80;99.90;;;;;;4991409;28;20239;-89
2020/12/11 10:52:44;;;;;;;24.87;16.73;;;3.80;99.90;;;;;;4997143;28;20207;-85
2020/12/11 10:55:10;;;;;;;21.37;15.90;;;3.90;99.90;;;;;;4998148;28;20255;-80
2020/12/11 10:57:36;;;;;;;23.40;16.67;;;4.00;99.90;;;;;;4999284;28;20210;-81
2020/12/11 11:00:03;;;;;;;22.87;16.40;;;4.00;99.90;;;;;;4995892;28;20262;-88
2020/12/11 11:02:30;;;;;;;20.90;16.00;;;4.00;99.90;;;;;;4988367;28;20448;-83
2020/12/11 11:04:56;;;;;;;21.97;16.40;;;3.90;99.90;;;;;;4988460;28;20287;-78
2020/12/11 11:07:25;;;;;;;22.80;16.10;;;3.90;99.90;;;;;;4988342;28;20196;-79
2020/12/11 11:10:01;;;;;;;23.07;16.60;;;3.90;99.90;;;;;;4990344;28;20774;-88
2020/12/11 11:12:30;;;;;;;23.37;16.17;;;3.90;99.90;;;;;;4988191;28;20234;-80
2020/12/11 11:15:27;;;;;;;22.77;16.50;;;3.90;99.90;;;;;;4988810;28;20719;-79
2020/12/11 11:18:14;;;;;;;23.40;17.53;;;3.90;99.90;;;;;;4997196;23;20570;-91
2020/12/11 11:23:46;;;;;;;24.17;17.20;;;3.90;99.90;;;;;;5040984;23;20325;-86
2020/12/11 11:26:30;;;;;;;23.33;16.50;;;3.90;99.90;;;;;;5028473;28;20826;-78
2020/12/11 11:28:56;;;;;;;22.47;16.00;;;3.90;99.90;;;;;;5007706;28;20689;-78
2020/12/11 12:39:39;;;;;;;25.80;18.53;;;4.30;99.90;;;;;;5770286;23;20264;-76
2020/12/11 12:42:24;;;;;;;28.20;19.80;;;4.30;99.90;;;;;;5009577;28;20246;-89
2020/12/11 12:44:50;;;;;;;26.93;18.57;;;4.40;99.90;;;;;;5009641;28;20551;-77
2020/12/11 12:47:17;;;;;;;27.87;19.30;;;4.40;99.90;;;;;;5009491;28;20207;-79
2020/12/11 12:49:44;;;;;;;25.87;18.30;;;4.40;99.90;;;;;;5007634;28;20242;-90
2020/12/11 12:52:10;;;;;;;26.53;18.57;;;4.40;99.90;;;;;;5009736;28;20592;-92
2020/12/11 12:54:38;;;;;;;25.17;18.43;;;4.40;99.90;;;;;;5009396;28;20214;-76
2020/12/11 12:57:08;;;;;;;24.10;18.23;;;4.40;99.90;;;;;;5008292;28;20202;-83
2020/12/11 12:59:42;;;;;;;22.50;17.50;;;4.40;99.90;;;;;;5008783;28;20196;-80
2020/12/11 13:04:56;;;;;;;24.10;18.23;;;4.40;99.90;;;;;;5007397;28;20567;-82
2020/12/11 13:07:23;;;;;;;29.07;18.10;;;4.50;99.90;;;;;;5009971;28;20195;-90
2020/12/11 13:09:51;;;;;;;24.27;17.10;;;4.50;99.90;;;;;;5010083;28;20211;-89
2020/12/11 13:12:17;;;;;;;23.13;17.90;;;4.50;99.90;;;;;;5007882;28;20238;-84
2020/12/11 13:14:44;;;;;;;21.07;16.83;;;4.50;99.90;;;;;;5019836;28;20195;-79
2020/12/11 13:17:10;;;;;;;24.87;18.03;;;4.50;99.90;;;;;;5007062;28;20286;-82
2020/12/11 13:19:36;;;;;;;21.50;16.80;;;4.50;99.90;;;;;;5007248;28;20915;-93
2020/12/11 13:22:19;;;;;;;24.33;18.20;;;4.50;99.90;;;;;;5008568;28;20245;-77
2020/12/11 13:27:31;;;;;;;24.47;17.70;;;4.50;99.90;;;;;;5005611;28;20253;-83
2020/12/11 13:29:58;;;;;;;24.97;18.93;;;4.50;99.90;;;;;;5010428;28;20298;-86
2020/12/11 13:32:28;;;;;;;23.73;18.10;;;4.60;99.90;;;;;;5007231;28;20215;-77
2020/12/11 13:34:54;;;;;;;26.50;17.90;;;4.60;99.90;;;;;;5007459;28;20965;-86
2020/12/11 13:37:21;;;;;;;23.50;17.83;;;4.60;99.90;;;;;;5009631;28;20204;-95
2020/12/11 13:39:47;;;;;;;24.67;18.63;;;4.60;99.90;;;;;;5008165;28;20377;-82
2020/12/11 13:42:14;;;;;;;24.70;18.07;;;4.60;99.90;;;;;;5006376;28;20226;-78
2020/12/11 13:44:41;;;;;;;21.33;16.47;;;4.60;99.90;;;;;;5009308;28;20303;-87
2020/12/11 13:47:07;;;;;;;22.90;17.80;;;4.60;99.90;;;;;;5006551;28;20217;-85
2020/12/11 13:49:34;;;;;;;24.33;18.47;;;4.60;99.90;;;;;;5007105;28;20210;-88
2020/12/11 13:52:02;;;;;;;22.50;17.83;;;4.60;99.90;;;;;;5008027;28;20480;-80
2020/12/11 13:54:28;;;;;;;23.80;18.33;;;4.60;99.90;;;;;;5008021;28;20210;-89
2020/12/11 13:56:54;;;;;;;26.87;19.03;;;4.60;99.90;;;;;;5007651;28;20210;-86
2020/12/11 13:59:21;;;;;;;22.43;17.83;;;4.60;99.90;;;;;;5006940;28;20250;-90
2020/12/11 14:01:49;;;;;;;24.23;18.40;;;4.60;99.90;;;;;;5008735;28;20230;-79
2020/12/11 14:04:16;;;;;;;22.73;17.10;;;4.60;99.90;;;;;;5008259;28;20214;-83
2020/12/11 14:06:43;;;;;;;24.23;17.93;;;4.60;99.90;;;;;;5008051;28;20204;-89
2020/12/11 14:09:09;;;;;;;23.60;17.87;;;4.60;99.90;;;;;;5008638;28;20203;-89
2020/12/11 14:11:36;;;;;;;21.40;17.17;;;4.60;99.90;;;;;;5010071;28;20207;-85
2020/12/11 14:14:02;;;;;;;23.90;17.40;;;4.60;99.90;;;;;;5007806;28;20238;-82
2020/12/11 14:16:35;;;;;;;22.43;17.93;;;4.70;99.90;;;;;;5009171;28;20202;-82
2020/12/11 14:19:19;;;;;;;25.73;18.17;;;4.70;99.90;;;;;;5008590;28;20203;-80